createdAt,value
2018-02-27T00:01:47.723Z,12.83
2018-02-27T00:04:15.243Z,14.77
2018-02-27T00:06:42.763Z,18.67
2018-02-27T00:09:10.278Z,11.00
2018-02-27T00:11:37.802Z,14.57
2018-02-27T00:14:05.323Z,13.03
2018-02-27T00:16:32.845Z,13.17
2018-02-27T00:19:00.378Z,12.53
2018-02-27T00:21:27.925Z,10.67
2018-02-27T00:23:55.453Z,11.70
2018-02-27T00:26:23.774Z,16.53
2018-02-27T00:28:51.288Z,14.90
2018-02-27T00:31:18.821Z,12.67
2018-02-27T00:33:46.343Z,14.20
2018-02-27T00:36:13.864Z,10.80
2018-02-27T00:38:41.386Z,15.07
2018-02-27T00:41:08.908Z,13.27
2018-02-27T00:43:36.428Z,12.47
2018-02-27T00:46:03.946Z,14.10
2018-02-27T00:48:31.477Z,20.80
2018-02-27T00:50:58.992Z,12.30
2018-02-27T00:53:26.503Z,14.90
2018-02-27T00:55:54.031Z,17.30
2018-02-27T00:58:21.572Z,14.23
2018-02-27T01:00:49.106Z,18.07
2018-02-27T01:03:16.624Z,17.83
2018-02-27T01:05:44.132Z,13.77
2018-02-27T01:08:11.648Z,12.30
2018-02-27T01:10:39.161Z,14.80
2018-02-27T01:13:06.681Z,10.50
2018-02-27T01:15:34.215Z,12.70
2018-02-27T01:18:01.741Z,12.77
2018-02-27T01:20:29.271Z,13.23
2018-02-27T01:22:56.801Z,13.53
2018-02-27T01:25:24.323Z,14.47
2018-02-27T01:27:51.850Z,15.73
2018-02-27T01:30:19.378Z,16.73
2018-02-27T01:32:46.908Z,12.80
2018-02-27T01:35:14.435Z,14.30
2018-02-27T01:37:41.950Z,18.57
2018-02-27T01:40:09.474Z,13.40
2018-02-27T01:42:37.002Z,15.47
2018-02-27T01:45:04.527Z,14.47
2018-02-27T01:47:32.054Z,16.53
2018-02-27T01:49:59.569Z,15.03
2018-02-27T01:52:27.101Z,16.47
2018-02-27T01:54:54.628Z,14.93
2018-02-27T01:57:22.173Z,20.20
2018-02-27T01:59:49.704Z,16.03
2018-02-27T02:02:17.217Z,20.13
2018-02-27T02:04:44.736Z,16.63
2018-02-27T02:07:12.256Z,21.43
2018-02-27T02:09:39.780Z,20.67
2018-02-27T02:12:07.331Z,17.43
2018-02-27T02:14:34.873Z,15.67
2018-02-27T02:17:02.393Z,18.37
2018-02-27T02:19:29.924Z,20.63
2018-02-27T02:21:57.449Z,16.73
2018-02-27T02:24:24.988Z,17.03
2018-02-27T02:26:52.502Z,18.90
2018-02-27T02:29:20.019Z,15.77
2018-02-27T02:31:47.540Z,18.63
2018-02-27T02:34:15.066Z,19.40
2018-02-27T02:36:42.626Z,17.80
2018-02-27T02:39:10.150Z,15.00
2018-02-27T02:41:37.675Z,18.90
2018-02-27T02:44:05.206Z,20.97
2018-02-27T02:46:32.738Z,20.03
2018-02-27T02:49:00.256Z,18.30
2018-02-27T02:51:27.774Z,20.20
2018-02-27T02:53:55.289Z,17.27
2018-02-27T02:56:22.800Z,16.80
2018-02-27T02:58:50.339Z,17.33
2018-02-27T03:01:17.867Z,18.47
2018-02-27T03:03:45.389Z,16.53
2018-02-27T03:06:12.913Z,18.17
2018-02-27T03:08:40.445Z,15.33
2018-02-27T03:11:07.970Z,16.73
2018-02-27T03:13:35.503Z,16.17
2018-02-27T03:16:03.025Z,14.77
2018-02-27T03:18:30.540Z,20.07
2018-02-27T03:20:58.070Z,19.60
2018-02-27T03:23:25.599Z,18.47
2018-02-27T03:25:53.126Z,19.87
2018-02-27T03:28:20.643Z,21.37
2018-02-27T03:30:48.179Z,18.70
2018-02-27T03:33:15.684Z,17.40
2018-02-27T03:35:43.218Z,17.73
2018-02-27T03:38:10.730Z,16.37
2018-02-27T03:40:38.253Z,16.77
2018-02-27T03:43:05.771Z,17.87
2018-02-27T03:45:33.285Z,15.57
2018-02-27T03:48:00.802Z,18.03
2018-02-27T03:50:28.313Z,18.33
2018-02-27T03:52:55.841Z,20.50
2018-02-27T03:55:23.374Z,16.67
2018-02-27T03:57:50.923Z,15.70
2018-02-27T04:00:18.444Z,19.37
2018-02-27T04:02:45.976Z,15.83
2018-02-27T04:05:13.491Z,15.70
2018-02-27T04:07:41.024Z,16.70
2018-02-27T04:10:08.551Z,18.87
2018-02-27T04:12:36.082Z,16.93
2018-02-27T04:15:03.637Z,16.83
2018-02-27T04:17:31.161Z,16.33
2018-02-27T04:19:58.676Z,14.60
2018-02-27T04:22:26.192Z,17.07
2018-02-27T04:24:53.705Z,18.70
2018-02-27T04:27:21.224Z,18.30
2018-02-27T04:29:48.754Z,15.40
2018-02-27T04:32:16.285Z,19.60
2018-02-27T04:34:43.805Z,14.70
2018-02-27T04:37:11.378Z,17.67
2018-02-27T04:39:38.907Z,20.10
2018-02-27T04:42:06.429Z,16.07
2018-02-27T04:44:33.943Z,17.50
2018-02-27T04:47:02.374Z,15.23
2018-02-27T04:49:29.897Z,16.40
2018-02-27T04:51:57.425Z,13.40
2018-02-27T04:54:24.954Z,20.27
2018-02-27T04:56:52.466Z,14.90
2018-02-27T04:59:19.987Z,15.23
2018-02-27T05:01:47.511Z,15.53
2018-02-27T05:04:15.017Z,13.13
2018-02-27T05:06:42.556Z,17.30
2018-02-27T05:09:10.090Z,13.63
2018-02-27T05:11:37.628Z,14.17
2018-02-27T05:14:05.141Z,12.63
2018-02-27T05:16:32.659Z,15.57
2018-02-27T05:19:00.186Z,17.70
2018-02-27T05:21:27.700Z,13.27
2018-02-27T05:23:55.211Z,19.73
2018-02-27T05:26:22.732Z,15.37
2018-02-27T05:28:50.257Z,14.90
2018-02-27T05:31:17.833Z,18.77
2018-02-27T05:33:45.347Z,16.60
2018-02-27T05:36:12.862Z,17.77
2018-02-27T05:38:40.390Z,19.77
2018-02-27T05:41:07.905Z,16.67
2018-02-27T05:43:35.437Z,17.37
2018-02-27T05:46:02.961Z,17.27
2018-02-27T05:48:30.480Z,16.70
2018-02-27T05:50:58.005Z,18.73
2018-02-27T05:53:25.520Z,21.27
2018-02-27T05:55:53.050Z,16.07
2018-02-27T05:58:20.584Z,21.50
2018-02-27T06:00:48.111Z,23.27
2018-02-27T06:03:15.629Z,16.13
2018-02-27T06:05:43.151Z,19.70
2018-02-27T06:08:10.673Z,18.43
2018-02-27T06:10:38.201Z,18.63
2018-02-27T06:13:05.790Z,20.50
2018-02-27T06:15:33.269Z,18.93
2018-02-27T06:18:00.781Z,17.50
2018-02-27T06:20:28.309Z,20.30
2018-02-27T06:22:55.829Z,20.30
2018-02-27T06:25:23.344Z,18.80
2018-02-27T06:27:50.866Z,18.37
2018-02-27T06:30:18.397Z,21.00
2018-02-27T06:32:45.918Z,17.30
2018-02-27T06:35:13.449Z,22.53
2018-02-27T06:37:40.973Z,21.50
2018-02-27T06:40:08.489Z,20.37
2018-02-27T06:42:36.032Z,18.57
2018-02-27T06:45:03.552Z,21.23
2018-02-27T06:47:31.080Z,20.73
2018-02-27T06:49:58.635Z,20.93
2018-02-27T06:52:26.160Z,21.20
2018-02-27T06:54:53.706Z,21.53
2018-02-27T06:57:21.241Z,19.53
2018-02-27T06:59:48.769Z,19.80
2018-02-27T07:02:16.335Z,20.77
2018-02-27T07:04:43.824Z,18.37
2018-02-27T07:07:11.341Z,22.70
2018-02-27T07:09:38.870Z,17.10
2018-02-27T07:12:06.403Z,16.00
2018-02-27T07:14:33.925Z,17.33
2018-02-27T07:17:01.448Z,17.97
2018-02-27T07:19:28.977Z,19.13
2018-02-27T07:21:56.501Z,19.77
2018-02-27T07:24:24.035Z,19.13
2018-02-27T07:26:51.554Z,20.83
2018-02-27T07:29:19.075Z,21.53
2018-02-27T07:31:46.602Z,17.97
2018-02-27T07:34:14.138Z,19.50
2018-02-27T07:36:41.656Z,15.67
2018-02-27T07:39:09.170Z,20.53
2018-02-27T07:41:36.722Z,19.10
2018-02-27T07:44:04.246Z,22.93
2018-02-27T07:46:31.798Z,18.77
2018-02-27T07:48:59.325Z,18.07
2018-02-27T07:51:26.849Z,21.07
2018-02-27T07:53:54.373Z,22.13
2018-02-27T07:56:21.930Z,24.37
2018-02-27T07:58:49.462Z,18.70
2018-02-27T08:01:17.002Z,16.90
2018-02-27T08:03:44.520Z,19.33
2018-02-27T08:06:12.067Z,21.87
2018-02-27T08:08:39.600Z,19.03
2018-02-27T08:11:07.127Z,16.57
2018-02-27T08:13:34.641Z,15.03
2018-02-27T08:16:02.175Z,16.77
2018-02-27T08:18:29.705Z,15.33
2018-02-27T08:20:57.221Z,13.97
2018-02-27T08:23:24.752Z,15.03
2018-02-27T08:25:52.269Z,14.60
2018-02-27T08:28:19.807Z,11.93
2018-02-27T08:30:47.325Z,17.97
2018-02-27T08:33:14.843Z,15.70
2018-02-27T08:35:42.361Z,15.87
2018-02-27T08:38:09.887Z,14.00
2018-02-27T08:40:37.398Z,14.43
2018-02-27T08:43:04.926Z,15.10
2018-02-27T08:45:32.448Z,14.90
2018-02-27T08:47:59.973Z,19.23
2018-02-27T08:50:27.544Z,12.10
2018-02-27T08:52:55.037Z,13.33
2018-02-27T08:55:22.564Z,10.00
2018-02-27T08:57:50.084Z,14.60
2018-02-27T09:00:17.611Z,16.37
2018-02-27T09:02:45.130Z,10.60
2018-02-27T09:05:12.652Z,15.33
2018-02-27T09:07:40.170Z,16.03
2018-02-27T09:10:07.699Z,12.63
2018-02-27T09:12:35.230Z,12.63
2018-02-27T09:15:02.771Z,11.60
2018-02-27T09:17:30.276Z,10.00
2018-02-27T09:19:57.807Z,12.77
2018-02-27T09:22:25.329Z,10.07
2018-02-27T09:24:52.849Z,11.27
2018-02-27T09:27:20.394Z,10.93
2018-02-27T09:29:47.908Z,10.40
2018-02-27T09:32:15.496Z,9.50
2018-02-27T09:34:43.015Z,10.10
2018-02-27T09:37:10.529Z,10.90
2018-02-27T09:39:38.045Z,12.73
2018-02-27T09:42:05.599Z,8.97
2018-02-27T09:44:33.121Z,11.80
2018-02-27T09:47:00.634Z,14.43
2018-02-27T09:49:28.162Z,15.57
2018-02-27T09:51:55.672Z,11.23
2018-02-27T09:54:23.182Z,12.30
2018-02-27T09:56:50.694Z,12.13
2018-02-27T09:59:18.212Z,10.23
2018-02-27T10:01:45.745Z,11.23
2018-02-27T10:04:13.265Z,10.70
2018-02-27T10:06:40.791Z,9.63
2018-02-27T10:09:08.309Z,11.50
2018-02-27T10:11:35.829Z,9.43
2018-02-27T10:14:03.355Z,12.47
2018-02-27T10:16:30.862Z,11.20
2018-02-27T10:18:58.379Z,11.80
2018-02-27T10:21:25.891Z,11.40
2018-02-27T10:23:53.421Z,10.03
2018-02-27T10:26:20.937Z,11.17
2018-02-27T10:28:48.470Z,12.23
2018-02-27T10:31:15.996Z,13.67
2018-02-27T10:33:43.526Z,12.83
2018-02-27T10:36:11.041Z,14.37
2018-02-27T10:38:38.570Z,11.33
2018-02-27T10:41:06.109Z,13.40
2018-02-27T10:43:33.628Z,13.97
2018-02-27T10:46:01.137Z,13.20
2018-02-27T10:48:28.652Z,11.60
2018-02-27T10:50:56.202Z,14.37
2018-02-27T10:53:23.736Z,14.33
2018-02-27T10:55:51.266Z,13.43
2018-02-27T10:58:18.806Z,13.83
2018-02-27T11:00:51.357Z,7.97
2018-02-27T11:03:18.891Z,10.73
2018-02-27T11:05:46.442Z,8.43
2018-02-27T11:08:14.042Z,10.43
2018-02-27T11:10:41.630Z,8.73
2018-02-27T11:13:09.154Z,7.27
2018-02-27T11:15:36.677Z,5.63
2018-02-27T11:18:04.205Z,7.20
2018-02-27T11:20:31.735Z,10.07
2018-02-27T11:22:59.263Z,9.07
2018-02-27T11:25:26.787Z,6.90
2018-02-27T11:27:54.308Z,7.10
2018-02-27T11:30:21.839Z,6.80
2018-02-27T11:32:49.367Z,8.37
2018-02-27T11:35:16.907Z,5.33
2018-02-27T11:37:44.416Z,7.43
2018-02-27T11:40:12.008Z,6.93
2018-02-27T11:42:39.549Z,8.67
2018-02-27T11:45:07.077Z,8.13
2018-02-27T11:47:34.618Z,4.80
2018-02-27T11:50:02.148Z,4.87
2018-02-27T11:52:29.704Z,5.00
2018-02-27T11:54:57.271Z,7.47
2018-02-27T11:57:24.808Z,5.97
2018-02-27T11:59:52.320Z,6.70
2018-02-27T12:02:19.879Z,6.10
2018-02-27T12:04:47.370Z,4.63
2018-02-27T12:07:14.921Z,5.97
2018-02-27T12:09:42.451Z,6.20
2018-02-27T12:12:09.980Z,6.50
2018-02-27T12:14:37.525Z,9.77
2018-02-27T12:17:05.049Z,7.63
2018-02-27T12:19:32.576Z,6.80
2018-02-27T12:22:00.116Z,8.23
2018-02-27T12:24:28.256Z,7.97
2018-02-27T12:26:55.785Z,7.87
2018-02-27T12:29:23.292Z,7.27
2018-02-27T12:31:50.830Z,7.47
2018-02-27T12:34:18.373Z,13.20
2018-02-27T12:36:45.901Z,6.20
2018-02-27T12:39:13.415Z,6.13
2018-02-27T12:41:40.941Z,8.63
2018-02-27T12:44:08.448Z,7.73
2018-02-27T12:46:35.973Z,6.50
2018-02-27T12:49:03.510Z,7.20
2018-02-27T12:51:31.101Z,7.70
2018-02-27T12:53:58.639Z,6.57
2018-02-27T12:56:26.160Z,6.17
2018-02-27T12:58:53.683Z,5.80
2018-02-27T13:01:21.203Z,6.07
2018-02-27T13:03:48.730Z,6.50
2018-02-27T13:06:16.286Z,7.23
2018-02-27T13:08:43.867Z,7.07
2018-02-27T13:11:11.403Z,9.57
2018-02-27T13:13:38.938Z,9.60
2018-02-27T13:16:06.461Z,6.13
2018-02-27T13:18:33.981Z,6.67
2018-02-27T13:21:01.506Z,7.30
2018-02-27T13:23:29.042Z,7.40
2018-02-27T13:25:56.631Z,6.77
2018-02-27T13:28:24.165Z,7.10
2018-02-27T13:30:51.716Z,5.60
2018-02-27T13:33:19.245Z,7.97
2018-02-27T13:35:46.768Z,6.10
2018-02-27T13:38:14.301Z,6.77
2018-02-27T13:40:41.820Z,6.93
2018-02-27T13:43:09.382Z,7.67
2018-02-27T13:45:36.967Z,7.87
2018-02-27T13:48:04.491Z,8.40
2018-02-27T13:50:32.025Z,8.97
2018-02-27T13:52:59.561Z,7.93
2018-02-27T13:55:27.117Z,9.77
2018-02-27T13:57:54.758Z,9.63
2018-02-27T14:00:22.286Z,9.93
2018-02-27T14:02:49.868Z,9.57
2018-02-27T14:05:17.387Z,8.83
2018-02-27T14:07:44.954Z,12.77
2018-02-27T14:10:12.472Z,10.03
2018-02-27T14:12:40.019Z,10.80
2018-02-27T14:15:07.539Z,8.30
2018-02-27T14:17:35.052Z,8.00
2018-02-27T14:20:02.573Z,9.63
2018-02-27T14:22:30.090Z,12.33
2018-02-27T14:24:57.614Z,9.97
2018-02-27T14:27:25.135Z,8.07
2018-02-27T14:29:52.650Z,11.00
2018-02-27T14:32:20.166Z,9.23
2018-02-27T14:34:47.680Z,9.73
2018-02-27T14:37:15.205Z,8.23
2018-02-27T14:39:42.745Z,10.23
2018-02-27T14:42:10.277Z,9.07
2018-02-27T14:44:37.798Z,8.13
2018-02-27T14:47:05.313Z,9.43
2018-02-27T14:49:32.831Z,12.63
2018-02-27T14:52:00.359Z,10.17
2018-02-27T14:54:27.885Z,9.67
2018-02-27T14:56:55.408Z,9.23
2018-02-27T14:59:22.932Z,10.10
2018-02-27T15:01:50.476Z,11.73
2018-02-27T15:04:18.002Z,9.53
2018-02-27T15:06:45.529Z,13.10
2018-02-27T15:09:13.071Z,12.10
2018-02-27T15:11:40.604Z,12.07
2018-02-27T15:14:08.125Z,11.33
2018-02-27T15:16:35.681Z,11.10
2018-02-27T15:19:03.211Z,11.37
2018-02-27T15:21:30.728Z,9.83
2018-02-27T15:23:58.270Z,15.63
2018-02-27T15:26:25.803Z,12.07
2018-02-27T15:28:53.325Z,10.60
2018-02-27T15:31:20.853Z,16.63
2018-02-27T15:33:48.407Z,11.77
2018-02-27T15:36:15.926Z,9.67
2018-02-27T15:38:43.464Z,13.23
2018-02-27T15:41:10.992Z,11.17
2018-02-27T15:43:38.517Z,12.50
2018-02-27T15:46:06.034Z,10.60
2018-02-27T15:48:33.562Z,11.67
2018-02-27T15:51:01.096Z,13.93
2018-02-27T15:53:28.639Z,9.20
2018-02-27T15:55:56.167Z,9.37
2018-02-27T15:58:23.699Z,12.50
2018-02-27T16:00:51.348Z,10.10
2018-02-27T16:03:18.871Z,13.00
2018-02-27T16:05:46.408Z,13.00
2018-02-27T16:08:13.931Z,13.03
2018-02-27T16:10:41.462Z,15.10
2018-02-27T16:13:08.984Z,13.40
2018-02-27T16:15:36.505Z,14.17
2018-02-27T16:18:04.012Z,6.53
2018-02-27T16:20:31.531Z,19.47
2018-02-27T16:22:59.055Z,19.77
2018-02-27T16:25:26.584Z,14.73
2018-02-27T16:27:54.110Z,16.20
2018-02-27T16:30:21.675Z,16.47
2018-02-27T16:32:49.204Z,15.57
2018-02-27T16:35:16.755Z,15.47
2018-02-27T16:37:44.269Z,13.57
2018-02-27T16:40:11.808Z,15.63
2018-02-27T16:42:39.348Z,15.57
2018-02-27T16:45:06.886Z,17.37
2018-02-27T16:47:34.413Z,16.40
2018-02-27T16:50:01.950Z,18.73
2018-02-27T16:52:29.484Z,16.43
2018-02-27T16:54:57.001Z,21.77
2018-02-27T16:57:24.525Z,13.10
2018-02-27T16:59:52.051Z,22.17
2018-02-27T17:02:19.577Z,18.43
2018-02-27T17:04:47.096Z,19.43
2018-02-27T17:07:14.629Z,21.70
2018-02-27T17:09:42.147Z,20.33
2018-02-27T17:12:09.680Z,15.27
2018-02-27T17:14:37.202Z,20.07
2018-02-27T17:17:04.733Z,25.33
2018-02-27T17:19:32.277Z,20.97
2018-02-27T17:21:59.801Z,22.57
2018-02-27T17:24:27.325Z,25.33
2018-02-27T17:26:54.874Z,19.83
2018-02-27T17:29:22.409Z,28.37
2018-02-27T17:31:49.969Z,24.97
2018-02-27T17:34:17.511Z,21.67
2018-02-27T17:36:45.036Z,18.43
2018-02-27T17:39:12.561Z,24.13
2018-02-27T17:41:40.091Z,23.93
2018-02-27T17:44:07.618Z,26.17
2018-02-27T17:46:35.144Z,21.37
2018-02-27T17:49:02.668Z,17.27
2018-02-27T17:51:30.210Z,23.50
2018-02-27T17:53:57.742Z,13.97
2018-02-27T17:56:25.270Z,22.53
2018-02-27T17:58:52.802Z,12.53
2018-02-27T18:01:20.330Z,23.87
2018-02-27T18:03:47.845Z,27.90
2018-02-27T18:06:15.384Z,18.23
2018-02-27T18:08:42.911Z,24.57
2018-02-27T18:11:10.438Z,26.43
2018-02-27T18:13:37.969Z,25.03
2018-02-27T18:16:05.512Z,27.00
2018-02-27T18:18:33.050Z,26.67
2018-02-27T18:21:00.579Z,27.07
2018-02-27T18:23:28.125Z,20.83
2018-02-27T18:25:55.648Z,23.73
2018-02-27T18:28:23.199Z,21.90
2018-02-27T18:30:51.284Z,28.67
2018-02-27T18:33:18.814Z,27.77
2018-02-27T18:35:46.329Z,19.07
2018-02-27T18:38:13.882Z,15.63
2018-02-27T18:40:41.415Z,21.83
2018-02-27T18:43:08.951Z,26.13
2018-02-27T18:45:36.470Z,29.63
2018-02-27T18:48:03.998Z,28.60
2018-02-27T18:50:31.528Z,26.47
2018-02-27T18:52:59.059Z,29.07
2018-02-27T18:55:26.589Z,30.13
2018-02-27T18:57:54.138Z,31.10
2018-02-27T19:00:21.670Z,35.73
2018-02-27T19:02:49.387Z,25.57
2018-02-27T19:05:16.944Z,19.93
2018-02-27T19:07:44.474Z,25.73
2018-02-27T19:10:11.990Z,37.77
2018-02-27T19:12:39.521Z,30.53
2018-02-27T19:15:07.055Z,27.27
2018-02-27T19:17:34.587Z,25.70
2018-02-27T19:20:02.105Z,33.10
2018-02-27T19:22:29.658Z,33.87
2018-02-27T19:24:57.226Z,33.67
2018-02-27T19:27:24.755Z,31.30
2018-02-27T19:29:52.288Z,30.33
2018-02-27T19:32:19.872Z,27.13
2018-02-27T19:34:47.376Z,29.20
2018-02-27T19:37:14.963Z,28.40
2018-02-27T19:39:42.517Z,24.20
2018-02-27T19:42:10.042Z,26.07
2018-02-27T19:44:37.570Z,25.73
2018-02-27T19:47:05.096Z,9.80
2018-02-27T19:49:32.642Z,20.77
2018-02-27T19:52:00.182Z,20.37
2018-02-27T19:54:27.757Z,24.40
2018-02-27T19:56:55.288Z,25.83
2018-02-27T19:59:22.923Z,22.13
2018-02-27T20:01:50.716Z,17.43
2018-02-27T20:04:18.453Z,20.07
2018-02-27T20:06:46.009Z,21.90
2018-02-27T20:09:13.527Z,16.53
2018-02-27T20:11:41.041Z,8.63
2018-02-27T20:14:08.763Z,26.70
2018-02-27T20:16:36.510Z,25.43
2018-02-27T20:19:04.069Z,26.67
2018-02-27T20:21:31.732Z,20.33
2018-02-27T20:24:04.839Z,23.03
2018-02-27T20:26:32.377Z,24.17
2018-02-27T20:29:05.735Z,22.57
2018-02-27T20:31:33.343Z,26.70
2018-02-27T20:34:00.888Z,21.90
2018-02-27T20:36:28.427Z,21.73
2018-02-27T20:39:01.548Z,13.43
2018-02-27T20:41:29.089Z,18.73
2018-02-27T20:43:56.649Z,22.53
2018-02-27T20:46:24.175Z,23.80
2018-02-27T20:48:52.538Z,30.87
2018-02-27T20:51:20.281Z,21.67
2018-02-27T20:53:47.801Z,20.83
2018-02-27T20:56:15.414Z,21.10
2018-02-27T20:58:42.982Z,9.67
2018-02-27T21:01:10.526Z,22.47
2018-02-27T21:03:38.060Z,21.50
2018-02-27T21:06:05.599Z,11.07
2018-02-27T21:08:33.131Z,21.80
2018-02-27T21:11:00.649Z,15.60
2018-02-27T21:13:29.072Z,18.17
2018-02-27T21:15:56.636Z,27.37
2018-02-27T21:18:24.161Z,19.73
2018-02-27T21:20:51.685Z,21.73
2018-02-27T21:23:19.241Z,28.60
2018-02-27T21:25:46.769Z,30.70
2018-02-27T21:28:14.289Z,21.13
2018-02-27T21:30:41.833Z,20.03
2018-02-27T21:33:09.376Z,29.37
2018-02-27T21:35:36.936Z,14.07
2018-02-27T21:38:04.460Z,13.03
2018-02-27T21:40:31.990Z,16.03
2018-02-27T21:42:59.516Z,13.20
2018-02-27T21:45:27.056Z,21.43
2018-02-27T21:47:54.587Z,19.50
2018-02-27T21:50:22.127Z,18.90
2018-02-27T21:52:49.654Z,15.97
2018-02-27T21:55:17.196Z,21.73
2018-02-27T21:57:44.778Z,21.80
2018-02-27T22:00:12.329Z,22.10
2018-02-27T22:02:39.882Z,30.07
2018-02-27T22:05:07.430Z,23.27
2018-02-27T22:07:34.972Z,17.70
2018-02-27T22:10:02.505Z,18.07
2018-02-27T22:12:30.039Z,27.97
2018-02-27T22:14:57.581Z,12.57
2018-02-27T22:17:25.112Z,18.70
2018-02-27T22:19:52.656Z,16.30
2018-02-27T22:22:20.170Z,10.17
2018-02-27T22:24:47.717Z,19.43
2018-02-27T22:27:15.250Z,18.40
2018-02-27T22:29:42.774Z,14.37
2018-02-27T22:32:10.296Z,19.43
2018-02-27T22:34:37.826Z,22.47
2018-02-27T22:37:05.378Z,25.13
2018-02-27T22:39:32.916Z,22.60
2018-02-27T22:42:00.437Z,23.17
2018-02-27T22:44:27.965Z,22.90
2018-02-27T22:46:55.489Z,31.67
2018-02-27T22:49:23.016Z,25.65
2018-02-27T22:51:50.543Z,22.53
2018-02-27T22:54:18.070Z,23.87
2018-02-27T22:56:45.664Z,28.03
2018-02-27T22:59:13.192Z,22.13
2018-02-27T23:01:40.749Z,22.23
2018-02-27T23:04:08.287Z,27.70
2018-02-27T23:06:35.992Z,25.73
2018-02-27T23:09:03.535Z,23.73
2018-02-27T23:11:31.070Z,30.73
2018-02-27T23:13:58.613Z,22.63
2018-02-27T23:16:26.140Z,26.47
2018-02-27T23:18:53.677Z,30.30
2018-02-27T23:21:21.201Z,34.10
2018-02-27T23:23:49.316Z,31.10
2018-02-27T23:26:22.044Z,28.53
2018-02-27T23:28:50.701Z,27.07
2018-02-27T23:31:18.321Z,23.60
2018-02-27T23:33:46.436Z,24.60
2018-02-27T23:36:13.963Z,33.93
2018-02-27T23:38:41.493Z,25.57
2018-02-27T23:41:09.037Z,22.17
2018-02-27T23:43:36.573Z,29.60
2018-02-27T23:46:04.104Z,32.63
2018-02-27T23:48:31.657Z,26.73
2018-02-27T23:50:59.183Z,31.30
2018-02-27T23:53:26.722Z,30.93
2018-02-27T23:55:54.266Z,26.57
2018-02-27T23:58:21.796Z,28.23
